Time;durP1;ratioP1;P1;durP2;ratioP2;P2;SDS_P1;SDS_P2;PMS_P1;PMS_P2;Temp;Humidity;BMP_temperature;BMP_pressure;BME280_temperature;BME280_humidity;BME280_pressure;Samples;Min_cycle;Max_cycle;Signal;HPM_P1;HPM_P2
2022/02/21 00:02:25;;;;;;;29.25;22.27;;;;;;;7.85;58.00;99674.91;4967324;28;20455;-93
2022/02/21 00:04:50;;;;;;;25.27;19.77;;;;;;;7.76;58.11;99670.59;4966417;28;20050;-93
2022/02/21 00:07:16;;;;;;;25.27;18.42;;;;;;;7.54;58.09;99619.44;4959306;28;20030;-94
2022/02/21 00:09:41;;;;;;;25.13;17.75;;;;;;;7.53;57.88;99628.28;4974297;28;20082;-94
2022/02/21 00:12:07;;;;;;;24.00;17.60;;;;;;;7.50;57.79;99618.09;4956333;28;20397;-94
2022/02/21 00:14:33;;;;;;;23.05;16.67;;;;;;;7.80;57.63;99656.16;4955900;28;20424;-93
2022/02/21 00:16:58;;;;;;;25.60;17.08;;;;;;;7.97;57.60;99692.06;4957024;28;20034;-94
2022/02/21 00:19:24;;;;;;;26.67;17.05;;;;;;;7.17;57.87;99569.78;4959193;28;20109;-94
2022/02/21 00:21:49;;;;;;;25.55;17.40;;;;;;;6.27;57.62;99413.59;4959483;28;20041;-94
2022/02/21 00:24:15;;;;;;;20.58;15.30;;;;;;;7.44;57.50;99629.22;4959536;28;20029;-94
2022/02/21 00:26:40;;;;;;;22.90;16.70;;;;;;;6.81;57.30;99565.63;4960443;28;20041;-94
2022/02/21 00:29:08;;;;;;;21.70;17.08;;;;;;;6.76;57.64;99513.59;4959345;28;20015;-94
2022/02/21 00:31:34;;;;;;;22.98;16.35;;;;;;;7.33;57.36;99627.66;4959654;28;20023;-94
2022/02/21 00:34:00;;;;;;;20.40;15.13;;;;;;;6.60;57.72;99487.22;4960435;28;20022;-93
2022/02/21 00:36:26;;;;;;;19.35;15.75;;;;;;;7.49;57.58;99640.09;4959310;28;20411;-94
2022/02/21 00:38:51;;;;;;;23.50;15.20;;;;;;;7.59;57.58;99658.38;4959708;28;20029;-94
2022/02/21 00:41:17;;;;;;;20.65;14.13;;;;;;;7.34;58.07;99633.72;4959332;28;20026;-93
2022/02/21 00:43:42;;;;;;;21.67;14.65;;;;;;;6.51;57.73;99519.63;4960050;28;20062;-93
2022/02/21 00:46:08;;;;;;;18.88;15.27;;;;;;;6.98;57.44;99565.56;4959719;28;20030;-94
2022/02/21 00:48:33;;;;;;;23.42;15.23;;;;;;;6.32;57.60;99461.16;4960571;28;20464;-93
2022/02/21 00:50:59;;;;;;;24.88;14.68;;;;;;;6.52;57.45;99480.13;4959455;28;20033;-93
2022/02/21 00:53:25;;;;;;;20.17;14.55;;;;;;;7.56;57.52;99651.63;4959372;28;20023;-95
2022/02/21 00:55:50;;;;;;;24.67;15.35;;;;;;;7.33;57.49;99613.69;4959755;28;20022;-94
2022/02/21 00:58:16;;;;;;;17.30;12.88;;;;;;;7.54;57.62;99645.69;4958936;28;20050;-94
2022/02/21 01:00:41;;;;;;;17.65;14.15;;;;;;;7.78;57.55;99662.56;4959026;28;20046;-94
2022/02/21 01:03:07;;;;;;;20.00;13.80;;;;;;;7.31;57.64;99613.84;4959693;28;20034;-94
2022/02/21 01:05:34;;;;;;;19.52;13.35;;;;;;;5.57;57.60;99293.97;4958813;28;20023;-93
2022/02/21 01:08:00;;;;;;;19.48;14.30;;;;;;;7.80;57.62;99653.53;4958816;28;20046;-95
2022/02/21 01:10:26;;;;;;;22.05;14.52;;;;;;;7.05;57.42;99543.97;4976977;28;20527;-94
2022/02/21 01:12:51;;;;;;;20.10;14.00;;;;;;;6.80;57.61;99493.94;4959065;28;20023;-94
2022/02/21 01:15:17;;;;;;;18.50;13.45;;;;;;;5.94;57.26;99351.41;4958996;28;20038;-91
2022/02/21 01:17:43;;;;;;;17.58;14.25;;;;;;;7.38;57.69;99600.09;4959019;28;20027;-93
2022/02/21 01:20:10;;;;;;;21.63;15.30;;;;;;;7.85;57.73;99647.81;4958734;28;20018;-94
2022/02/21 01:22:36;;;;;;;19.90;14.13;;;;;;;7.84;57.57;99670.66;4975821;28;20049;-93
2022/02/21 01:25:02;;;;;;;19.08;13.85;;;;;;;7.74;57.94;99637.59;4959524;28;20039;-94
2022/02/21 01:27:28;;;;;;;19.45;14.70;;;;;;;7.57;57.50;99592.00;4958706;28;20050;-93
2022/02/21 01:29:53;;;;;;;17.70;14.05;;;;;;;7.77;58.12;99640.72;4957806;28;20058;-94
2022/02/21 01:32:19;;;;;;;23.33;14.38;;;;;;;7.55;58.18;99607.94;4959136;28;20023;-94
2022/02/21 01:34:44;;;;;;;18.25;13.60;;;;;;;7.12;57.55;99537.09;4958508;28;20022;-94
2022/02/21 01:37:10;;;;;;;20.10;13.75;;;;;;;6.78;58.07;99466.22;4958765;28;20026;-94
2022/02/21 01:39:35;;;;;;;20.27;14.88;;;;;;;6.95;57.96;99496.81;4959345;28;20057;-94
2022/02/21 01:42:03;;;;;;;19.60;13.45;;;;;;;7.81;57.95;99615.75;4958329;28;20023;-94
2022/02/21 01:44:46;;;;;;;21.10;15.13;;;;;;;7.82;58.15;99640.25;4958405;28;20019;-94
2022/02/21 01:47:21;;;;;;;17.33;15.02;;;;;;;7.40;57.80;99543.81;4959076;28;20495;-94
2022/02/21 01:49:48;;;;;;;20.75;15.05;;;;;;;6.57;58.06;99424.59;4958293;28;20023;-93
2022/02/21 01:52:15;;;;;;;19.83;14.07;;;;;;;7.84;58.24;99607.56;4958027;28;20496;-94
2022/02/21 01:54:41;;;;;;;17.48;13.23;;;;;;;7.03;57.98;99478.47;4958452;28;20081;-93
2022/02/21 01:57:08;;;;;;;19.50;13.88;;;;;;;7.86;57.95;99618.75;4975564;28;20102;-93
2022/02/21 01:59:35;;;;;;;18.35;13.20;;;;;;;6.69;58.01;99463.53;4958394;28;20026;-94
2022/02/21 02:02:02;;;;;;;18.30;14.23;;;;;;;7.88;58.19;99589.66;4959157;28;20058;-94
2022/02/21 02:04:31;;;;;;;19.10;14.55;;;;;;;7.84;57.66;99593.59;4958193;28;20061;-93
2022/02/21 02:06:56;;;;;;;21.75;13.95;;;;;;;7.73;58.17;99578.13;4958477;28;20030;-94
2022/02/21 02:09:22;;;;;;;20.70;15.38;;;;;;;6.82;58.03;99430.81;4959760;28;20026;-94
2022/02/21 02:11:48;;;;;;;19.77;14.45;;;;;;;6.45;58.48;99410.09;4957979;28;20479;-94
2022/02/21 02:14:29;;;;;;;20.23;14.90;;;;;;;6.59;58.49;99389.34;4957920;28;20420;-94
2022/02/21 02:16:55;;;;;;;16.63;13.65;;;;;;;6.65;58.58;99412.34;4957643;28;20081;-93
2022/02/21 02:19:20;;;;;;;18.38;14.15;;;;;;;7.23;58.49;99493.00;4957711;28;20026;-94
2022/02/21 02:21:51;;;;;;;18.40;14.10;;;;;;;7.79;58.93;99570.41;4958463;28;20508;-93
2022/02/21 02:24:16;;;;;;;18.38;13.57;;;;;;;7.69;58.80;99567.09;4957673;28;20030;-94
2022/02/21 02:26:42;;;;;;;20.77;15.13;;;;;;;6.93;58.97;99448.91;4957605;28;20019;-94
2022/02/21 02:29:07;;;;;;;21.25;15.10;;;;;;;6.18;58.77;99322.75;4958830;28;20511;-94
2022/02/21 02:31:33;;;;;;;19.35;15.43;;;;;;;6.48;58.66;99402.72;4957929;28;20026;-94
2022/02/21 02:33:58;;;;;;;19.98;15.48;;;;;;;7.82;58.51;99577.16;4957717;28;20078;-93
2022/02/21 02:36:24;;;;;;;21.15;15.80;;;;;;;6.98;58.53;99447.47;4958713;28;20027;-94
2022/02/21 02:38:49;;;;;;;19.90;13.95;;;;;;;7.33;58.63;99516.53;4957974;28;20062;-93
2022/02/21 02:41:15;;;;;;;18.77;13.75;;;;;;;7.70;58.60;99565.28;4957421;28;20019;-94
2022/02/21 02:43:40;;;;;;;20.45;15.13;;;;;;;7.95;58.42;99593.31;4958415;28;20029;-93
2022/02/21 02:46:06;;;;;;;20.35;14.38;;;;;;;7.51;58.97;99553.25;4957885;28;20102;-93
2022/02/21 02:48:33;;;;;;;22.05;15.60;;;;;;;7.65;58.64;99550.81;4957267;28;20029;-93
2022/02/21 02:50:59;;;;;;;20.13;15.95;;;;;;;7.45;58.96;99515.28;4957042;28;20118;-93
2022/02/21 02:53:25;;;;;;;20.60;15.45;;;;;;;7.87;59.38;99603.78;4957750;28;20085;-94
2022/02/21 02:55:50;;;;;;;21.90;16.58;;;;;;;7.94;58.75;99600.38;4957699;28;20034;-94
2022/02/21 02:58:16;;;;;;;20.27;16.08;;;;;;;7.57;58.71;99545.53;4956999;28;20018;-94
2022/02/21 03:00:41;;;;;;;19.42;15.32;;;;;;;7.54;59.10;99532.72;4957044;28;20042;-93
2022/02/21 03:03:07;;;;;;;21.67;15.55;;;;;;;6.81;58.88;99397.69;4956621;28;20027;-93
2022/02/21 03:05:32;;;;;;;24.95;16.83;;;;;;;7.44;58.81;99523.31;4956871;28;20496;-94
2022/02/21 03:07:58;;;;;;;23.38;17.20;;;;;;;7.43;58.89;99514.63;4957869;28;20081;-93
2022/02/21 03:10:23;;;;;;;23.45;17.00;;;;;;;6.92;59.37;99434.97;4956913;28;20031;-94
2022/02/21 03:12:49;;;;;;;21.70;15.02;;;;;;;7.84;59.02;99556.78;4958472;28;20023;-93
2022/02/21 03:15:14;;;;;;;20.10;15.70;;;;;;;7.81;59.01;99557.94;4956721;28;20027;-93
2022/02/21 03:17:40;;;;;;;19.90;15.82;;;;;;;6.89;59.08;99429.22;4956843;28;20404;-93
2022/02/21 03:20:06;;;;;;;20.88;15.35;;;;;;;7.49;58.92;99492.16;4957345;28;20022;-94
2022/02/21 03:22:31;;;;;;;21.80;16.05;;;;;;;7.68;58.66;99526.03;4957127;28;20085;-95
2022/02/21 03:24:58;;;;;;;44.85;26.02;;;;;;;8.09;58.91;99581.34;4956701;28;20488;-93
2022/02/21 03:27:23;;;;;;;28.92;19.05;;;;;;;7.83;59.18;99555.16;4957346;28;20030;-93
2022/02/21 03:29:49;;;;;;;24.92;17.77;;;;;;;7.98;59.06;99550.91;4956454;28;20026;-93
2022/02/21 03:32:14;;;;;;;26.55;18.65;;;;;;;7.73;58.63;99504.53;4956564;28;20085;-94
2022/02/21 03:34:40;;;;;;;24.17;17.98;;;;;;;6.86;59.08;99366.53;4956784;28;20018;-93
2022/02/21 03:37:06;;;;;;;19.33;15.27;;;;;;;7.21;58.75;99421.44;4956232;28;20131;-94
2022/02/21 03:39:32;;;;;;;22.05;16.33;;;;;;;8.10;58.85;99559.31;4956292;28;20022;-94
2022/02/21 03:41:57;;;;;;;21.45;16.10;;;;;;;7.47;58.83;99449.47;4956847;28;20046;-93
2022/02/21 03:44:23;;;;;;;24.05;16.73;;;;;;;7.91;58.74;99515.75;4956337;28;20055;-94
2022/02/21 03:46:48;;;;;;;20.23;15.80;;;;;;;6.72;58.93;99344.34;4956304;28;20097;-94
2022/02/21 03:49:14;;;;;;;28.40;16.63;;;;;;;7.82;58.91;99498.31;4956140;28;20026;-94
2022/02/21 03:51:40;;;;;;;23.75;17.95;;;;;;;8.03;59.09;99539.91;4957117;28;20053;-93
2022/02/21 03:54:07;;;;;;;25.10;17.52;;;;;;;8.21;59.10;99570.38;4955683;28;20019;-93
2022/02/21 03:56:34;;;;;;;23.17;17.13;;;;;;;7.88;59.51;99502.91;4955942;28;20034;-93
2022/02/21 03:58:59;;;;;;;27.85;18.98;;;;;;;8.24;59.05;99556.09;4956406;28;20022;-92
2022/02/21 04:01:25;;;;;;;26.13;18.33;;;;;;;7.62;59.30;99466.25;4955954;28;20087;-91
2022/02/21 04:03:50;;;;;;;26.33;18.77;;;;;;;6.57;59.11;99332.78;4973151;28;20081;-93
2022/02/21 04:06:16;;;;;;;25.77;18.77;;;;;;;7.94;59.50;99518.03;4973709;28;20019;-94
2022/02/21 04:08:42;;;;;;;26.95;19.42;;;;;;;6.87;59.28;99357.69;4955868;28;20419;-94
2022/02/21 04:11:07;;;;;;;26.17;19.20;;;;;;;7.07;59.04;99392.38;4973274;28;20085;-93
2022/02/21 04:13:32;;;;;;;28.15;20.05;;;;;;;7.63;59.43;99483.66;4973064;28;20023;-94
2022/02/21 04:15:58;;;;;;;31.13;22.33;;;;;;;8.09;59.22;99534.81;4973034;28;20446;-94
2022/02/21 04:18:24;;;;;;;30.42;22.60;;;;;;;7.69;58.86;99501.41;4956063;28;20022;-94
2022/02/21 04:20:49;;;;;;;26.85;19.45;;;;;;;7.45;59.08;99454.88;4956010;28;20065;-93
2022/02/21 04:23:15;;;;;;;27.58;20.05;;;;;;;7.98;59.02;99541.22;4965959;28;20071;-94
2022/02/21 04:25:40;;;;;;;24.15;18.70;;;;;;;7.53;59.06;99469.84;4969895;28;20027;-94
2022/02/21 04:28:06;;;;;;;21.30;18.08;;;;;;;7.24;59.36;99449.19;4972236;28;20496;-93
2022/02/21 04:30:31;;;;;;;24.25;18.95;;;;;;;7.78;59.68;99525.91;4956621;28;20565;-93
2022/02/21 04:32:57;;;;;;;22.38;18.83;;;;;;;7.17;59.55;99435.88;4956449;28;20011;-93
2022/02/21 04:35:25;;;;;;;28.65;20.35;;;;;;;7.83;60.00;99534.94;4957804;28;20416;-94
2022/02/21 04:37:51;;;;;;;25.08;20.48;;;;;;;7.84;59.67;99536.59;4973227;28;20038;-94
2022/02/21 04:40:22;;;;;;;28.10;21.80;;;;;;;7.56;60.14;99503.66;4955921;28;20034;-93
2022/02/21 04:42:52;;;;;;;30.25;23.73;;;;;;;7.50;60.14;99497.25;4955973;28;20023;-94
2022/02/21 04:45:19;;;;;;;26.83;22.83;;;;;;;6.49;59.95;99315.22;4956318;28;20616;-93
2022/02/21 04:47:44;;;;;;;26.20;22.33;;;;;;;7.79;60.32;99538.06;4955802;28;20026;-94
2022/02/21 04:50:10;;;;;;;30.58;24.35;;;;;;;6.99;60.53;99399.22;4956529;28;20026;-93
2022/02/21 04:52:37;;;;;;;28.48;24.67;;;;;;;7.36;59.69;99468.94;4955689;28;20051;-92
2022/02/21 04:55:05;;;;;;;30.13;24.80;;;;;;;7.03;60.09;99419.91;4955363;28;20094;-95
2022/02/21 04:57:30;;;;;;;32.25;25.63;;;;;;;7.03;59.78;99404.16;4956186;28;20015;-95
2022/02/21 04:59:56;;;;;;;31.13;25.63;;;;;;;7.57;60.03;99482.50;4955163;28;20033;-94
2022/02/21 05:02:21;;;;;;;30.02;26.63;;;;;;;6.40;59.78;99308.28;4955163;28;20054;-93
2022/02/21 05:04:47;;;;;;;30.23;25.35;;;;;;;7.86;60.12;99541.69;4956888;28;20576;-93
2022/02/21 05:07:12;;;;;;;29.67;26.48;;;;;;;7.00;59.94;99398.25;4959101;28;20023;-94
2022/02/21 05:09:37;;;;;;;36.00;28.90;;;;;;;7.71;60.02;99504.69;4958906;28;20407;-94
2022/02/21 05:12:03;;;;;;;32.65;27.25;;;;;;;7.51;59.53;99459.47;4960918;28;20019;-93
2022/02/21 05:14:29;;;;;;;33.47;27.75;;;;;;;7.71;59.46;99475.78;4959074;28;20054;-93
2022/02/21 05:16:54;;;;;;;32.38;28.88;;;;;;;8.08;59.66;99532.38;4958835;28;20061;-93
2022/02/21 05:19:20;;;;;;;35.33;26.23;;;;;;;6.86;59.66;99337.66;4958856;28;20034;-93
2022/02/21 05:21:45;;;;;;;35.28;28.27;;;;;;;7.79;59.88;99480.22;4959259;28;20050;-94
2022/02/21 05:24:11;;;;;;;38.10;30.15;;;;;;;7.76;59.45;99478.75;4958671;28;20031;-93
2022/02/21 05:26:36;;;;;;;37.28;29.27;;;;;;;8.16;59.49;99535.00;4958218;28;20011;-93
2022/02/21 05:29:02;;;;;;;40.03;31.05;;;;;;;7.95;59.47;99520.50;4959350;28;20030;-93
2022/02/21 05:31:29;;;;;;;36.20;30.98;;;;;;;8.22;59.46;99543.09;4958328;28;20018;-92
2022/02/21 05:33:54;;;;;;;31.50;26.25;;;;;;;7.38;59.45;99401.31;4958314;28;20496;-93
2022/02/21 05:36:20;;;;;;;34.50;25.77;;;;;;;7.89;59.85;99484.34;4958094;28;20034;-92
2022/02/21 05:38:46;;;;;;;33.25;28.50;;;;;;;8.15;60.01;99523.66;4958195;28;20110;-91
2022/02/21 05:41:12;;;;;;;35.15;30.08;;;;;;;7.47;59.76;99403.00;4961605;28;20058;-92
2022/02/21 05:43:37;;;;;;;35.85;29.67;;;;;;;7.50;59.72;99400.03;4958537;28;20082;-91
2022/02/21 05:46:03;;;;;;;40.28;31.48;;;;;;;8.46;59.16;99552.84;4958023;28;20097;-90
2022/02/21 05:48:29;;;;;;;42.35;32.67;;;;;;;8.02;58.97;99472.53;4957979;28;20090;-91
2022/02/21 05:50:54;;;;;;;35.03;26.40;;;;;;;8.01;59.38;99448.06;4958090;28;20031;-91
2022/02/21 05:53:19;;;;;;;34.15;25.52;;;;;;;8.36;59.28;99514.53;4958812;28;20026;-91
2022/02/21 05:55:45;;;;;;;37.47;29.73;;;;;;;8.14;59.31;99458.91;4957616;28;20504;-91
2022/02/21 05:58:10;;;;;;;52.20;39.17;;;;;;;7.96;59.41;99437.22;4957746;28;20444;-91
2022/02/21 06:00:36;;;;;;;45.10;33.70;;;;;;;7.98;59.29;99443.13;4957895;28;20062;-91
2022/02/21 06:03:02;;;;;;;54.22;39.03;;;;;;;7.73;59.07;99408.13;4957596;28;20023;-91
2022/02/21 06:05:27;;;;;;;60.65;40.85;;;;;;;8.71;59.42;99551.03;4962670;28;20027;-90
2022/02/21 06:07:53;;;;;;;59.28;43.88;;;;;;;8.72;59.01;99592.16;4957900;28;20031;-93
2022/02/21 06:10:19;;;;;;;69.95;49.95;;;;;;;7.87;58.94;99430.31;4957437;28;20022;-91
2022/02/21 06:12:44;;;;;;;66.65;47.08;;;;;;;8.09;58.83;99458.56;4957481;28;20023;-92
2022/02/21 06:15:10;;;;;;;58.58;43.45;;;;;;;7.78;59.01;99415.50;4957190;28;20034;-91
2022/02/21 06:17:36;;;;;;;59.13;43.30;;;;;;;8.49;59.00;99520.13;4957034;28;20558;-91
2022/02/21 06:20:01;;;;;;;57.22;41.78;;;;;;;8.44;59.37;99512.72;4957132;28;20030;-91
2022/02/21 06:22:27;;;;;;;55.92;41.45;;;;;;;8.39;59.20;99496.59;4960714;28;20538;-91
2022/02/21 06:24:52;;;;;;;56.45;44.08;;;;;;;8.52;59.08;99501.38;4958258;28;20503;-92
2022/02/21 06:27:18;;;;;;;62.60;45.15;;;;;;;7.78;58.84;99415.50;4957821;28;20026;-92
2022/02/21 06:29:43;;;;;;;59.75;44.28;;;;;;;8.41;59.25;99493.81;4958257;28;20027;-93
2022/02/21 06:32:09;;;;;;;55.38;42.90;;;;;;;8.34;59.11;99475.22;4958144;28;20054;-93
2022/02/21 06:34:34;;;;;;;51.28;38.92;;;;;;;8.69;59.06;99495.09;4958347;28;20515;-92
2022/02/21 06:37:00;;;;;;;49.65;36.60;;;;;;;8.29;59.17;99436.25;4958080;28;20058;-93
2022/02/21 06:39:25;;;;;;;55.03;39.30;;;;;;;8.82;59.07;99521.72;4957808;28;20031;-91
2022/02/21 06:41:51;;;;;;;63.83;43.03;;;;;;;8.16;59.08;99412.22;4957104;28;20108;-92
2022/02/21 06:44:17;;;;;;;87.28;57.88;;;;;;;8.93;58.56;99502.16;4957989;28;20021;-91
2022/02/21 06:46:43;;;;;;;95.35;62.90;;;;;;;7.98;59.02;99361.63;4955386;28;20026;-92
2022/02/21 06:49:10;;;;;;;89.32;59.15;;;;;;;9.07;58.57;99513.78;4957340;28;20113;-89
2022/02/21 06:51:36;;;;;;;69.78;46.70;;;;;;;8.46;58.65;99410.75;4957431;28;20027;-90
2022/02/21 06:54:06;;;;;;;61.80;44.17;;;;;;;8.79;58.74;99431.72;4973609;28;20415;-90
2022/02/21 06:56:32;;;;;;;63.60;43.83;;;;;;;9.33;58.29;99516.19;4954532;28;20142;-90
2022/02/21 06:58:59;;;;;;;64.88;45.97;;;;;;;9.39;58.25;99491.78;4956321;28;20034;-89
2022/02/21 07:01:24;;;;;;;65.82;44.80;;;;;;;9.03;58.37;99444.84;4955699;28;20130;-89
2022/02/21 07:03:50;;;;;;;60.10;42.25;;;;;;;9.01;58.24;99393.34;4973152;28;20027;-91
2022/02/21 07:06:16;;;;;;;66.85;42.78;;;;;;;9.34;58.00;99457.22;4950156;29;20484;-91
2022/02/21 07:08:42;;;;;;;63.65;41.72;;;;;;;9.45;58.04;99462.91;4951592;28;20023;-91
2022/02/21 07:11:08;;;;;;;63.53;40.97;;;;;;;9.43;58.21;99457.00;4952151;28;20035;-90
2022/02/21 07:13:35;;;;;;;58.05;39.08;;;;;;;9.23;57.82;99418.91;4954862;28;20058;-90
2022/02/21 07:16:00;;;;;;;58.47;38.00;;;;;;;9.37;57.79;99438.44;4955609;28;20034;-90
2022/02/21 07:18:26;;;;;;;51.92;36.90;;;;;;;9.45;57.89;99446.28;4955487;28;20031;-89
2022/02/21 07:20:51;;;;;;;51.17;36.05;;;;;;;8.74;57.80;99340.09;4953980;28;20039;-90
2022/02/21 07:23:17;;;;;;;47.65;35.67;;;;;;;8.86;57.78;99394.03;4953381;28;20109;-89
2022/02/21 07:25:43;;;;;;;47.25;34.45;;;;;;;7.01;57.61;99070.97;4954217;28;20066;-90
2022/02/21 07:28:08;;;;;;;47.67;37.92;;;;;;;8.88;58.10;99359.63;4953072;28;20019;-90
2022/02/21 07:30:34;;;;;;;53.65;37.38;;;;;;;8.77;57.98;99350.28;4951932;28;20030;-89
2022/02/21 07:32:59;;;;;;;51.00;38.67;;;;;;;9.45;57.96;99465.56;4953526;28;20515;-89
2022/02/21 07:35:26;;;;;;;53.55;39.83;;;;;;;9.77;57.92;99471.66;4954409;28;20054;-89
2022/02/21 07:37:52;;;;;;;54.78;40.22;;;;;;;9.40;58.22;99395.94;4955710;28;20455;-88
2022/02/21 07:40:18;;;;;;;56.13;41.70;;;;;;;9.58;57.83;99425.47;4955003;28;20050;-88
2022/02/21 07:42:53;;;;;;;60.70;45.13;;;;;;;9.26;58.21;99355.34;4955134;28;20069;-90
2022/02/21 07:45:22;;;;;;;62.42;47.08;;;;;;;9.94;58.32;99454.75;4953392;28;20022;-89
2022/02/21 07:47:50;;;;;;;76.07;47.75;;;;;;;9.74;57.90;99435.09;4978676;28;20047;-89
2022/02/21 07:50:16;;;;;;;65.85;49.00;;;;;;;9.55;58.23;99389.72;4969393;28;20086;-90
2022/02/21 07:52:42;;;;;;;79.18;50.42;;;;;;;10.06;58.50;99450.69;4950017;28;20027;-89
2022/02/21 07:55:08;;;;;;;72.15;56.13;;;;;;;9.96;58.36;99426.38;4949300;29;20054;-89
2022/02/21 07:57:33;;;;;;;52.33;42.10;;;;;;;10.24;58.49;99444.31;4950252;28;20413;-90
2022/02/21 07:59:59;;;;;;;57.05;43.15;;;;;;;9.15;58.31;99269.63;4956417;28;20059;-87
2022/02/21 08:02:25;;;;;;;48.75;39.28;;;;;;;9.75;58.18;99352.38;4950468;28;21447;-87
2022/02/21 08:04:50;;;;;;;40.92;34.28;;;;;;;9.61;58.48;99335.50;4950973;28;20074;-89
2022/02/21 08:07:16;;;;;;;39.35;31.58;;;;;;;10.04;58.56;99394.66;4948619;28;20070;-89
2022/02/21 08:09:41;;;;;;;41.67;33.15;;;;;;;10.36;58.46;99422.59;4945169;28;20037;-89
2022/02/21 08:12:08;;;;;;;94.03;36.63;;;;;;;10.48;58.62;99430.91;4953078;28;20027;-89
2022/02/21 08:14:37;;;;;;;63.63;32.92;;;;;;;10.38;58.68;99404.75;4971468;28;20026;-88
2022/02/21 08:17:03;;;;;;;44.10;28.70;;;;;;;10.05;58.66;99356.72;4953773;28;20035;-90
2022/02/21 08:19:28;;;;;;;41.60;27.52;;;;;;;10.14;59.27;99360.94;4955244;28;20034;-90
2022/02/21 08:21:54;;;;;;;38.75;26.38;;;;;;;10.25;58.73;99377.34;4953999;28;20626;-90
2022/02/21 08:24:20;;;;;;;43.95;25.70;;;;;;;10.57;58.98;99453.59;4953907;28;20085;-89
2022/02/21 08:26:46;;;;;;;35.22;24.60;;;;;;;10.58;58.95;99402.44;4952066;28;20015;-89
2022/02/21 08:29:11;;;;;;;34.95;22.23;;;;;;;10.57;59.40;99365.66;4968744;28;21830;-89
2022/02/21 08:31:37;;;;;;;32.72;21.13;;;;;;;10.78;59.23;99397.44;4951939;29;20607;-89
2022/02/21 08:34:03;;;;;;;29.52;18.67;;;;;;;10.05;59.41;99289.97;4954048;28;20022;-89
2022/02/21 08:36:28;;;;;;;28.45;18.88;;;;;;;9.97;59.82;99282.94;4960748;28;20041;-88
2022/02/21 08:38:55;;;;;;;28.70;19.58;;;;;;;10.30;59.70;99317.75;4951467;28;20027;-89
2022/02/21 08:41:21;;;;;;;27.30;17.55;;;;;;;9.94;59.52;99241.13;4955514;28;20443;-87
2022/02/21 08:43:47;;;;;;;24.85;17.90;;;;;;;10.94;59.87;99381.38;4960573;28;20173;-89
2022/02/21 08:46:13;;;;;;;29.90;18.23;;;;;;;10.88;59.75;99376.84;4955969;28;20030;-89
2022/02/21 08:48:39;;;;;;;24.35;18.75;;;;;;;11.09;59.62;99391.94;4947281;28;20043;-88
2022/02/21 08:51:05;;;;;;;25.55;18.83;;;;;;;10.62;59.26;99294.66;4956528;28;20392;-88
2022/02/21 08:53:30;;;;;;;28.52;21.83;;;;;;;10.55;59.11;99297.22;4956475;28;20035;-88
2022/02/21 08:55:56;;;;;;;28.02;22.63;;;;;;;11.25;59.47;99381.16;4958604;28;20035;-89
2022/02/21 08:58:22;;;;;;;38.63;26.65;;;;;;;11.05;59.24;99324.59;4958710;28;20026;-89
2022/02/21 09:00:47;;;;;;;27.42;20.63;;;;;;;11.19;58.73;99321.13;4966697;28;20034;-89
2022/02/21 09:03:12;;;;;;;24.88;18.35;;;;;;;11.54;58.57;99358.28;4968400;28;20019;-89
2022/02/21 09:05:38;;;;;;;28.13;19.67;;;;;;;11.48;58.17;99330.78;4984853;28;20102;-88
2022/02/21 09:08:05;;;;;;;23.60;18.25;;;;;;;10.78;58.04;99215.22;4976296;28;20050;-88
2022/02/21 09:10:31;;;;;;;19.30;15.98;;;;;;;11.56;58.03;99304.22;4952839;29;20023;-88
2022/02/21 09:12:58;;;;;;;25.10;17.20;;;;;;;11.25;57.36;99221.78;4953619;28;20492;-88
2022/02/21 09:15:24;;;;;;;24.13;16.63;;;;;;;12.14;57.48;99359.66;4944358;28;20053;-89
2022/02/21 09:17:50;;;;;;;21.52;16.23;;;;;;;12.11;56.79;99329.13;4971718;28;20058;-88
2022/02/21 09:20:16;;;;;;;21.15;15.57;;;;;;;12.07;56.21;99304.88;4954483;28;20046;-88
2022/02/21 09:22:42;;;;;;;18.67;16.13;;;;;;;12.04;56.02;99322.97;4957074;28;20082;-87
2022/02/21 09:25:09;;;;;;;25.63;18.73;;;;;;;12.09;56.02;99255.22;4956783;28;20039;-90
2022/02/21 09:27:35;;;;;;;23.10;16.48;;;;;;;11.44;55.69;99132.06;4955079;28;20019;-90
2022/02/21 09:30:05;;;;;;;23.08;17.17;;;;;;;11.99;55.42;99216.88;4957159;28;20030;-90
2022/02/21 09:32:31;;;;;;;23.13;15.77;;;;;;;12.08;55.42;99226.28;4956950;28;20065;-90
2022/02/21 09:34:56;;;;;;;19.95;15.93;;;;;;;12.21;55.35;99222.91;4951007;28;20090;-90
2022/02/21 09:37:23;;;;;;;31.02;19.63;;;;;;;12.32;55.01;99228.44;4956543;28;20536;-90
2022/02/21 09:39:49;;;;;;;25.95;22.25;;;;;;;12.91;55.06;99341.81;4944519;28;20027;-91
2022/02/21 09:42:14;;;;;;;18.50;15.35;;;;;;;12.79;55.11;99268.38;4985261;28;20011;-89
2022/02/21 09:44:40;;;;;;;21.95;17.08;;;;;;;12.57;55.01;99220.81;4967259;28;20589;-90
2022/02/21 09:47:06;;;;;;;26.50;18.33;;;;;;;12.86;55.09;99248.03;4968969;28;20027;-90
2022/02/21 09:49:32;;;;;;;23.92;17.45;;;;;;;13.03;54.50;99259.88;4960636;29;20020;-90
2022/02/21 09:51:58;;;;;;;20.33;15.77;;;;;;;13.20;54.75;99258.53;4951546;28;20057;-90
2022/02/21 09:54:24;;;;;;;19.13;13.95;;;;;;;13.52;54.51;99277.34;4951891;28;20046;-91
2022/02/21 09:56:51;;;;;;;19.73;13.52;;;;;;;13.60;53.95;99271.84;4975498;28;20030;-90
2022/02/21 09:59:17;;;;;;;17.90;13.40;;;;;;;13.48;53.58;99231.03;4949766;28;20026;-89
2022/02/21 10:01:45;;;;;;;17.05;12.88;;;;;;;13.21;53.26;99153.28;4954155;28;20026;-89
2022/02/21 10:04:22;;;;;;;17.13;13.38;;;;;;;13.45;52.93;99194.31;4970020;28;20687;-88
2022/02/21 10:06:52;;;;;;;16.17;11.23;;;;;;;14.00;52.93;99249.56;4949191;28;20085;-88
2022/02/21 10:09:18;;;;;;;15.60;13.82;;;;;;;13.51;52.64;99129.84;4953469;28;20157;-88
2022/02/21 10:11:49;;;;;;;17.98;12.70;;;;;;;14.24;52.41;99236.66;4953616;28;20519;-88
2022/02/21 10:14:36;;;;;;;17.33;13.07;;;;;;;14.34;51.98;99229.06;4954308;28;20110;-88
2022/02/21 10:17:02;;;;;;;16.45;11.57;;;;;;;13.29;52.02;99053.16;4973538;28;20070;-88
2022/02/21 10:19:32;;;;;;;18.40;12.70;;;;;;;14.19;52.08;99170.91;4952942;28;20031;-87
2022/02/21 10:22:04;;;;;;;22.30;15.55;;;;;;;14.60;51.83;99207.72;4951254;28;20038;-87
2022/02/21 10:24:39;;;;;;;;;;;;;;;14.58;52.22;99204.47;4967325;28;20468;-88
2022/02/21 10:27:08;;;;;;;21.90;16.60;;;;;;;14.79;51.35;99200.66;4956253;28;19929;-88
2022/02/21 10:29:46;;;;;;;14.27;12.75;;;;;;;14.39;51.62;99108.91;4956328;28;20029;-88
2022/02/21 10:32:14;;;;;;;15.73;12.85;;;;;;;14.20;51.24;99057.53;4971117;28;20025;-88
2022/02/21 10:34:39;;;;;;;15.93;11.02;;;;;;;14.36;50.93;99051.72;4954867;28;20023;-89
2022/02/21 10:37:06;;;;;;;18.20;12.43;;;;;;;15.23;50.69;99159.91;4954411;28;20389;-88
2022/02/21 10:39:33;;;;;;;15.50;13.32;;;;;;;14.58;50.65;99034.44;4957079;28;20033;-88
2022/02/21 10:42:02;;;;;;;14.32;11.07;;;;;;;14.87;50.54;99090.66;4955451;28;20489;-88
2022/02/21 10:44:31;;;;;;;12.48;10.25;;;;;;;14.99;50.08;99072.16;4973167;28;20407;-88
2022/02/21 10:47:08;;;;;;;21.08;11.85;;;;;;;15.74;49.97;99147.41;4975788;28;20056;-90
2022/02/21 10:49:38;;;;;;;12.77;9.15;;;;;;;14.99;49.60;99011.81;4956575;28;20031;-88
2022/02/21 10:52:05;;;;;;;10.23;8.55;;;;;;;14.62;49.07;98929.34;4952908;28;20483;-87
2022/02/21 10:54:36;;;;;;;10.40;8.35;;;;;;;15.74;49.19;99087.00;4950520;29;20031;-87
2022/02/21 10:57:10;;;;;;;11.88;7.88;;;;;;;15.21;49.14;98994.41;4937242;29;20035;-87
2022/02/21 10:59:36;;;;;;;10.60;8.55;;;;;;;15.68;48.71;99061.28;4950840;28;20026;-87
2022/02/21 11:02:02;;;;;;;17.02;12.48;;;;;;;16.03;48.65;99100.56;4968250;28;20043;-87
2022/02/21 11:04:29;;;;;;;16.35;10.85;;;;;;;16.03;48.42;99098.72;4954751;28;20027;-87
2022/02/21 11:06:56;;;;;;;14.88;11.25;;;;;;;15.98;47.93;99063.97;4944986;29;20042;-87
2022/02/21 11:09:26;;;;;;;10.80;9.25;;;;;;;15.32;47.91;98960.94;4945324;28;20034;-87
2022/02/21 11:11:53;;;;;;;12.45;8.75;;;;;;;15.37;47.98;98944.31;4957064;28;20447;-87
2022/02/21 11:14:22;;;;;;;13.70;10.95;;;;;;;16.30;48.02;99072.56;4941448;28;20027;-87
2022/02/21 11:16:49;;;;;;;13.68;10.75;;;;;;;16.21;47.78;99028.63;4971911;28;20037;-87
2022/02/21 11:19:18;;;;;;;10.70;7.70;;;;;;;16.26;47.35;99027.94;4953587;28;20436;-88
2022/02/21 11:21:46;;;;;;;11.95;8.38;;;;;;;16.05;47.11;98981.34;4953920;28;20042;-87